Time;durP1;ratioP1;P1;durP2;ratioP2;P2;SDS_P1;SDS_P2;PMS_P1;PMS_P2;Temp;Humidity;BMP_temperature;BMP_pressure;BME280_temperature;BME280_humidity;BME280_pressure;Samples;Min_cycle;Max_cycle;Signal;HPM_P1;HPM_P2
2022/04/28 00:01:47;;;;;;;8.40;6.97;;;;;;;12.88;55.39;100027.75;4174747;28;20298;-33
2022/04/28 00:03:49;;;;;;;7.57;6.80;;;;;;;12.82;56.66;100063.09;4174323;28;20239;-32
2022/04/28 00:05:51;;;;;;;8.40;6.97;;;;;;;13.08;55.48;100033.59;4173480;28;20674;-32
2022/04/28 00:07:53;;;;;;;8.07;6.93;;;;;;;12.87;56.42;100057.28;4174440;28;20239;-32
2022/04/28 00:09:55;;;;;;;8.10;7.30;;;;;;;13.05;55.62;100033.09;4174587;28;20913;-32
2022/04/28 00:11:56;;;;;;;9.77;7.20;;;;;;;13.34;55.12;100009.34;4181668;28;20660;-33
2022/04/28 00:13:59;;;;;;;7.10;6.40;;;;;;;12.53;56.14;100021.72;4178034;28;20258;-33
2022/04/28 00:16:01;;;;;;;10.03;7.30;;;;;;;12.94;55.66;100035.09;4177352;28;20238;-33
2022/04/28 00:18:03;;;;;;;8.47;7.10;;;;;;;12.67;56.36;100031.75;4177400;28;20242;-33
2022/04/28 00:20:06;;;;;;;8.60;7.50;;;;;;;12.55;57.43;100075.72;4175316;28;20238;-32
2022/04/28 00:22:08;;;;;;;7.87;7.07;;;;;;;12.27;58.25;100083.19;4180875;28;20240;-33
2022/04/28 00:24:10;;;;;;;8.07;6.83;;;;;;;12.32;57.20;100056.84;4176831;28;20239;-33
2022/04/28 00:26:12;;;;;;;8.77;7.60;;;;;;;12.36;56.93;100060.03;4178920;28;20235;-34
2022/04/28 00:28:16;;;;;;;9.27;7.50;;;;;;;12.74;56.16;100037.25;4176885;28;20274;-34
2022/04/28 00:30:18;;;;;;;8.20;7.40;;;;;;;12.40;57.21;100062.19;4175740;28;20244;-32
2022/04/28 00:32:20;;;;;;;7.80;7.00;;;;;;;12.39;57.01;100065.88;4177065;28;20246;-32
2022/04/28 00:34:21;;;;;;;8.37;7.07;;;;;;;12.82;56.16;100037.22;4178172;28;20243;-32
2022/04/28 00:36:23;;;;;;;8.43;7.63;;;;;;;12.19;57.37;100059.97;4178161;28;20236;-32
2022/04/28 00:38:25;;;;;;;8.40;7.47;;;;;;;12.61;56.62;100055.56;4178443;28;20631;-32
2022/04/28 00:40:26;;;;;;;9.90;7.77;;;;;;;12.67;55.92;100025.53;4175105;28;20235;-33
2022/04/28 00:42:29;;;;;;;8.10;7.30;;;;;;;12.65;56.34;100049.72;4179310;28;20236;-32
2022/04/28 00:44:30;;;;;;;8.60;7.53;;;;;;;12.61;56.38;100052.91;4176653;28;20273;-33
2022/04/28 00:46:32;;;;;;;9.07;8.17;;;;;;;12.97;55.41;100005.41;4176819;28;20300;-32
2022/04/28 00:50:57;;;;;;;8.40;7.50;;;;;;;12.85;55.99;100030.72;4175505;28;20237;-32
2022/04/28 00:53:00;;;;;;;7.90;7.10;;;;;;;11.96;57.21;100049.06;4176958;28;20293;-32
2022/04/28 00:55:02;;;;;;;8.40;7.60;;;;;;;12.67;56.05;100030.88;4178644;28;20236;-34
2022/04/28 00:57:04;;;;;;;8.23;7.33;;;;;;;12.11;57.49;100049.28;4176417;28;20248;-33
2022/04/28 00:59:07;;;;;;;8.43;7.60;;;;;;;12.73;56.02;100024.06;4180941;28;21131;-32
2022/04/28 01:01:09;;;;;;;8.47;7.57;;;;;;;12.17;57.83;100074.44;4176681;28;20236;-34
2022/04/28 01:03:12;;;;;;;8.37;7.50;;;;;;;11.99;57.49;100059.41;4178935;28;20240;-34
2022/04/28 01:05:13;;;;;;;10.47;7.33;;;;;;;12.55;56.29;100027.72;4177138;28;21237;-32
2022/04/28 01:07:16;;;;;;;9.70;7.80;;;;;;;12.74;55.96;100015.91;4173578;28;20261;-35
2022/04/28 01:09:18;;;;;;;9.00;8.10;;;;;;;12.69;56.08;100025.38;4174898;28;20236;-33
2022/04/28 01:11:20;;;;;;;9.90;7.93;;;;;;;12.38;56.63;100050.84;4175021;28;20289;-34
2022/04/28 01:13:22;;;;;;;9.27;8.27;;;;;;;12.16;56.72;100043.47;4178297;28;20239;-33
2022/04/28 01:15:23;;;;;;;10.43;8.70;;;;;;;11.67;57.50;100050.22;4174616;28;20240;-32
2022/04/28 01:17:25;;;;;;;9.47;8.13;;;;;;;11.45;59.09;100054.28;4177993;28;20244;-32
2022/04/28 01:19:27;;;;;;;8.67;7.87;;;;;;;12.00;57.63;100065.56;4176482;28;20667;-32
2022/04/28 01:21:30;;;;;;;9.07;8.17;;;;;;;11.92;57.97;100080.53;4175304;28;20895;-32
2022/04/28 01:23:33;;;;;;;10.20;8.87;;;;;;;11.83;58.05;100077.94;4175394;28;20413;-32
2022/04/28 01:25:35;;;;;;;9.10;8.20;;;;;;;11.83;57.94;100070.81;4176166;28;20232;-33
2022/04/28 01:27:38;;;;;;;8.90;8.00;;;;;;;11.68;58.29;100080.41;4177445;28;20311;-33
2022/04/28 01:29:40;;;;;;;9.53;8.53;;;;;;;11.69;58.29;100079.38;4174609;28;20281;-34
2022/04/28 01:31:42;;;;;;;9.83;8.57;;;;;;;11.99;57.95;100074.56;4176898;28;20228;-32
2022/04/28 01:33:44;;;;;;;9.20;8.30;;;;;;;11.60;58.75;100081.16;4179943;28;20237;-32
2022/04/28 01:35:45;;;;;;;10.13;8.13;;;;;;;11.57;58.55;100086.81;4179701;28;20240;-32
2022/04/28 01:37:47;;;;;;;9.20;8.17;;;;;;;11.54;58.79;100095.09;4180581;28;20239;-32
2022/04/28 01:39:49;;;;;;;10.43;8.60;;;;;;;11.87;57.99;100047.38;4177979;28;20286;-32
2022/04/28 01:41:50;;;;;;;9.73;8.73;;;;;;;11.26;59.47;100081.94;4176833;28;20243;-32
2022/04/28 01:43:52;;;;;;;10.40;9.40;;;;;;;11.20;59.56;100090.53;4178805;28;20303;-33
2022/04/28 01:45:54;;;;;;;10.17;9.17;;;;;;;10.94;60.07;100087.84;4175324;28;20758;-31
2022/04/28 01:47:56;;;;;;;9.70;8.70;;;;;;;11.10;59.51;100090.63;4180889;28;20288;-31
2022/04/28 01:49:57;;;;;;;9.60;8.60;;;;;;;10.58;60.63;100077.16;4175518;28;20240;-32
2022/04/28 01:56:40;;;;;;;11.73;9.33;;;;;;;10.96;60.18;100088.53;4174825;28;20736;-32
2022/04/28 01:58:42;;;;;;;9.67;8.70;;;;;;;11.13;59.56;100079.69;4175936;28;20725;-32
2022/04/28 02:00:44;;;;;;;9.77;8.70;;;;;;;10.73;60.68;100109.38;4180716;28;20296;-33
2022/04/28 02:02:46;;;;;;;10.40;9.10;;;;;;;11.06;59.99;100094.59;4172823;28;20267;-32
2022/04/28 02:04:48;;;;;;;9.90;9.00;;;;;;;11.09;60.29;100093.44;4177554;28;20243;-32
2022/04/28 02:06:50;;;;;;;10.17;9.00;;;;;;;10.65;60.53;100086.22;4179835;28;20236;-32
2022/04/28 02:08:52;;;;;;;13.27;9.67;;;;;;;10.93;60.08;100089.66;4177410;28;20261;-32
2022/04/28 02:10:53;;;;;;;12.00;10.03;;;;;;;10.88;60.30;100101.75;4174941;28;20289;-33
2022/04/28 02:12:55;;;;;;;11.10;9.57;;;;;;;10.46;61.54;100105.78;4174788;28;20289;-32
2022/04/28 02:14:57;;;;;;;10.53;9.43;;;;;;;10.88;60.95;100096.44;4174830;28;20285;-33
2022/04/28 02:16:59;;;;;;;10.47;9.43;;;;;;;10.68;60.71;100117.81;4175313;28;20277;-32
2022/04/28 02:19:01;;;;;;;9.90;8.90;;;;;;;10.99;60.20;100082.91;4174713;28;20289;-32
2022/04/28 02:21:03;;;;;;;13.33;9.43;;;;;;;10.48;61.57;100103.84;4175346;28;20231;-32
2022/04/28 02:23:05;;;;;;;10.87;9.20;;;;;;;10.53;61.32;100108.69;4173840;28;20243;-32
2022/04/28 02:25:07;;;;;;;10.00;9.00;;;;;;;11.04;60.27;100058.47;4176211;28;20235;-32
2022/04/28 02:27:09;;;;;;;11.27;9.70;;;;;;;10.87;60.28;100095.59;4175780;28;20236;-31
2022/04/28 02:29:11;;;;;;;10.10;9.10;;;;;;;10.79;60.55;100100.84;4179675;28;20232;-32
2022/04/28 02:31:12;;;;;;;10.87;9.80;;;;;;;10.65;60.85;100110.16;4178036;28;20289;-34
2022/04/28 02:33:14;;;;;;;11.13;10.03;;;;;;;10.77;61.13;100105.50;4179546;28;20246;-31
2022/04/28 02:35:16;;;;;;;11.70;10.50;;;;;;;10.45;61.66;100112.09;4175677;28;20658;-32
2022/04/28 02:37:18;;;;;;;10.63;9.57;;;;;;;10.95;60.39;100066.41;4171146;28;20235;-32
2022/04/28 02:39:20;;;;;;;11.40;9.77;;;;;;;10.73;60.75;100106.72;4172943;28;20228;-32
2022/04/28 02:41:22;;;;;;;10.37;9.37;;;;;;;10.67;60.68;100108.19;4173377;28;20227;-32
2022/04/28 02:43:24;;;;;;;12.03;10.23;;;;;;;11.36;59.43;100032.09;4173968;28;20232;-32
2022/04/28 02:45:26;;;;;;;10.77;9.67;;;;;;;10.88;59.93;100094.59;4174695;28;20242;-34
2022/04/28 02:47:28;;;;;;;11.30;10.20;;;;;;;11.09;59.67;100072.16;4173819;28;20262;-31
2022/04/28 02:49:30;;;;;;;10.43;9.43;;;;;;;10.80;59.97;100092.72;4177183;28;20553;-33
2022/04/28 02:51:31;;;;;;;11.03;9.93;;;;;;;10.72;60.32;100113.88;4174383;28;20232;-32
2022/04/28 02:53:34;;;;;;;11.20;10.10;;;;;;;10.48;60.56;100098.53;4179746;28;20228;-33
2022/04/28 02:55:36;;;;;;;11.30;9.63;;;;;;;10.63;61.02;100110.31;4178993;28;20637;-33
2022/04/28 02:57:37;;;;;;;12.43;9.97;;;;;;;10.68;60.21;100093.06;4175648;28;20746;-33
2022/04/28 02:59:39;;;;;;;10.37;9.40;;;;;;;10.52;61.15;100113.19;4175798;28;20236;-32
2022/04/28 03:01:41;;;;;;;11.10;10.00;;;;;;;10.90;60.08;100068.72;4179230;28;20823;-31
2022/04/28 03:03:42;;;;;;;11.67;10.07;;;;;;;10.46;61.01;100107.63;4174849;28;20239;-32
2022/04/28 03:12:45;;;;;;;13.67;10.80;;;;;;;10.19;62.21;100125.25;4175105;28;20577;-34
2022/04/28 03:14:47;;;;;;;12.37;11.07;;;;;;;10.30;62.11;100126.88;4174759;28;20228;-32
2022/04/28 03:16:49;;;;;;;12.00;10.70;;;;;;;10.11;62.50;100131.31;4179342;28;20776;-31
2022/04/28 03:18:50;;;;;;;16.43;10.60;;;;;;;10.17;62.31;100130.72;4178493;28;20583;-33
2022/04/28 03:20:52;;;;;;;11.60;10.50;;;;;;;10.10;62.34;100119.00;4176892;28;20249;-32
2022/04/28 03:22:54;;;;;;;11.70;10.50;;;;;;;10.20;61.81;100121.63;4173979;28;20236;-33
2022/04/28 03:24:56;;;;;;;11.67;10.47;;;;;;;10.50;61.29;100090.38;4176091;28;20232;-32
2022/04/28 03:26:58;;;;;;;13.23;10.40;;;;;;;10.60;60.91;100073.38;4173972;28;20238;-31
2022/04/28 03:28:59;;;;;;;13.77;11.43;;;;;;;10.34;61.64;100110.47;4174755;28;20236;-33
2022/04/28 03:31:06;;;;;;;13.83;11.30;;;;;;;9.81;62.74;100127.09;4176258;28;20770;-32
2022/04/28 03:33:08;;;;;;;14.23;11.33;;;;;;;10.06;62.45;100128.25;4172418;28;20354;-32
2022/04/28 03:35:11;;;;;;;13.10;11.70;;;;;;;10.09;62.54;100127.13;4171504;28;20675;-32
2022/04/28 03:37:13;;;;;;;12.57;11.30;;;;;;;9.85;63.21;100134.59;4174672;28;20705;-33
2022/04/28 03:39:14;;;;;;;13.57;12.17;;;;;;;10.00;62.90;100134.97;4174786;28;20275;-32
2022/04/28 03:41:16;;;;;;;13.73;12.33;;;;;;;9.88;62.79;100144.13;4172794;28;20240;-33
2022/04/28 03:43:18;;;;;;;15.57;12.63;;;;;;;9.78;63.15;100143.31;4174088;28;20778;-32
2022/04/28 03:45:20;;;;;;;14.83;13.23;;;;;;;9.85;63.23;100136.44;4174091;28;20243;-31
2022/04/28 03:47:22;;;;;;;13.30;11.90;;;;;;;9.40;63.74;100148.53;4177591;28;20286;-31
2022/04/28 03:49:24;;;;;;;13.37;12.07;;;;;;;9.79;62.98;100134.34;4177569;28;20281;-31
2022/04/28 03:51:25;;;;;;;13.03;11.63;;;;;;;9.86;62.16;100115.03;4178379;28;20229;-33
2022/04/28 03:53:27;;;;;;;14.67;12.13;;;;;;;9.74;63.21;100148.06;4178081;28;20236;-32
2022/04/28 03:55:29;;;;;;;13.43;12.10;;;;;;;9.67;63.27;100149.59;4181867;28;20297;-33
2022/04/28 03:57:31;;;;;;;12.90;11.60;;;;;;;10.03;62.58;100109.94;4181005;28;20236;-32
2022/04/28 03:59:32;;;;;;;13.17;11.87;;;;;;;9.66;63.00;100146.13;4180445;28;20228;-31
2022/04/28 04:01:34;;;;;;;12.97;11.70;;;;;;;9.60;63.45;100154.66;4182934;28;20231;-32
2022/04/28 04:03:36;;;;;;;14.13;11.57;;;;;;;9.36;63.94;100163.03;4177028;28;20634;-33
2022/04/28 04:05:38;;;;;;;14.70;13.20;;;;;;;9.57;63.66;100143.44;4176499;28;20755;-32
2022/04/28 04:07:42;;;;;;;13.63;12.33;;;;;;;9.38;64.32;100168.22;4177591;28;20278;-33
2022/04/28 04:09:44;;;;;;;12.80;11.50;;;;;;;9.40;64.30;100159.16;4177058;28;20240;-34
2022/04/28 04:11:48;;;;;;;14.27;12.60;;;;;;;9.42;64.25;100158.97;4175747;28;20239;-32
2022/04/28 04:13:50;;;;;;;13.83;12.43;;;;;;;9.65;63.54;100135.66;4172546;28;20269;-34
2022/04/28 04:15:52;;;;;;;13.87;11.60;;;;;;;9.57;63.42;100146.09;4174143;28;20615;-32
2022/04/28 04:17:54;;;;;;;14.00;12.50;;;;;;;9.74;63.09;100121.53;4176487;28;20281;-31
2022/04/28 04:19:55;;;;;;;13.80;12.37;;;;;;;10.09;62.14;100080.13;4178808;28;20235;-32
2022/04/28 04:21:58;;;;;;;16.77;12.37;;;;;;;9.35;63.67;100171.97;4177114;28;20297;-34
2022/04/28 04:24:00;;;;;;;14.10;12.70;;;;;;;9.76;62.64;100151.41;4175679;28;20262;-32
2022/04/28 04:26:02;;;;;;;13.17;11.93;;;;;;;9.55;63.34;100172.78;4177628;28;20252;-31
2022/04/28 04:28:04;;;;;;;18.43;12.07;;;;;;;9.79;62.54;100137.84;4176420;28;20239;-31
2022/04/28 04:32:27;;;;;;;14.17;12.40;;;;;;;9.47;63.44;100176.19;4177693;28;20235;-33
2022/04/28 04:34:28;;;;;;;13.90;12.40;;;;;;;9.21;64.71;100196.28;4179003;28;20239;-33
2022/04/28 04:36:30;;;;;;;15.53;12.30;;;;;;;9.42;64.16;100185.53;4176638;28;20232;-31
2022/04/28 04:38:32;;;;;;;14.20;12.20;;;;;;;9.83;62.83;100111.84;4179353;28;20235;-32
2022/04/28 04:40:34;;;;;;;13.47;11.87;;;;;;;9.61;63.73;100176.75;4176838;28;20235;-33
2022/04/28 04:42:35;;;;;;;13.60;12.20;;;;;;;9.46;63.76;100189.59;4174577;28;20890;-33
2022/04/28 04:44:37;;;;;;;13.97;12.47;;;;;;;9.22;64.48;100201.47;4170285;28;20224;-34
2022/04/28 04:46:41;;;;;;;13.83;12.43;;;;;;;9.29;63.89;100205.22;4175805;28;20232;-32
2022/04/28 04:48:43;;;;;;;14.17;12.63;;;;;;;9.36;63.77;100194.06;4176195;28;20894;-32
2022/04/28 04:50:45;;;;;;;13.07;11.77;;;;;;;9.65;63.45;100160.38;4176025;28;20277;-31
2022/04/28 04:52:46;;;;;;;13.17;11.80;;;;;;;9.21;64.59;100209.56;4175263;28;20240;-37
2022/04/28 04:54:48;;;;;;;13.63;12.10;;;;;;;9.33;64.14;100205.78;4174110;28;20668;-32
2022/04/28 04:56:50;;;;;;;13.57;12.10;;;;;;;9.19;64.98;100216.81;4178574;28;20231;-32
2022/04/28 04:58:52;;;;;;;14.07;12.57;;;;;;;9.55;63.98;100162.19;4173463;28;20857;-34
2022/04/28 05:02:31;;;;;;;13.60;12.13;;;;;;;8.42;67.64;100165.31;4171438;27;20334;-61
2022/04/28 05:04:33;;;;;;;12.93;11.50;;;;;;;8.77;66.22;100140.97;4155996;28;20680;-60
2022/04/28 05:06:35;;;;;;;16.50;11.87;;;;;;;8.67;66.58;100182.53;4154117;28;20279;-61
2022/04/28 05:08:37;;;;;;;15.27;12.73;;;;;;;9.17;65.40;100125.94;4161470;28;20221;-61
2022/04/28 05:10:38;;;;;;;13.17;11.77;;;;;;;8.98;65.73;100155.91;4160005;28;20634;-60
2022/04/28 05:12:40;;;;;;;14.17;12.37;;;;;;;9.31;65.12;100128.13;4161450;28;20232;-61
2022/04/28 05:14:42;;;;;;;13.40;11.97;;;;;;;9.60;63.77;100106.84;4153324;28;20232;-61
2022/04/28 05:16:43;;;;;;;13.10;11.80;;;;;;;9.45;64.41;100129.50;4158177;28;20633;-60
2022/04/28 05:18:45;;;;;;;12.67;11.37;;;;;;;9.33;64.81;100169.50;4152635;28;20299;-60
2022/04/28 05:20:49;;;;;;;13.30;11.90;;;;;;;9.65;64.13;100133.00;4155830;28;20658;-60
2022/04/28 05:22:51;;;;;;;12.23;10.93;;;;;;;9.32;64.50;100164.31;4165829;28;20236;-61
2022/04/28 05:24:53;;;;;;;12.33;11.00;;;;;;;9.82;63.59;100118.97;4163856;28;20243;-60
2022/04/28 05:26:54;;;;;;;12.37;11.13;;;;;;;10.26;62.71;100081.13;4166787;28;20318;-60
2022/04/28 05:28:56;;;;;;;16.73;11.70;;;;;;;9.67;64.04;100153.13;4164667;28;20228;-59
2022/04/28 05:30:58;;;;;;;13.33;11.40;;;;;;;9.92;63.46;100126.06;4166432;28;20224;-61
2022/04/28 05:32:59;;;;;;;12.80;11.50;;;;;;;10.12;63.31;100114.38;4167316;28;20238;-61
2022/04/28 05:35:01;;;;;;;12.33;11.03;;;;;;;10.30;63.10;100105.63;4165704;28;20673;-60
2022/04/28 05:37:04;;;;;;;13.00;11.70;;;;;;;9.91;63.92;100145.63;4168009;28;20227;-61
2022/04/28 05:39:06;;;;;;;11.60;10.50;;;;;;;10.06;63.61;100125.59;4160442;28;20585;-61
2022/04/28 05:41:08;;;;;;;12.43;10.10;;;;;;;9.85;64.52;100161.16;4157910;28;20245;-60
2022/04/28 05:45:41;;;;;;;11.33;10.13;;;;;;;10.79;61.97;100087.53;4169193;28;20256;-60
2022/04/28 05:47:43;;;;;;;12.20;10.90;;;;;;;10.35;62.78;100124.63;4167993;28;20229;-61
2022/04/28 05:49:46;;;;;;;11.43;10.33;;;;;;;10.59;61.94;100087.66;4167881;28;20251;-61
2022/04/28 05:51:48;;;;;;;15.17;10.93;;;;;;;10.41;62.33;100106.25;4165931;28;20619;-61
2022/04/28 05:53:50;;;;;;;12.80;10.37;;;;;;;11.07;61.38;100084.78;4166540;28;20232;-61
2022/04/28 05:55:52;;;;;;;11.80;10.60;;;;;;;11.23;60.95;100065.47;4167171;28;20282;-61
2022/04/28 05:57:54;;;;;;;11.87;10.67;;;;;;;11.12;60.80;100066.53;4167341;28;20232;-60
2022/04/28 05:59:56;;;;;;;11.60;10.50;;;;;;;11.07;61.23;100063.50;4167791;28;20220;-61
2022/04/28 06:01:58;;;;;;;11.30;10.13;;;;;;;10.52;63.52;100145.09;4158910;28;20232;-59
2022/04/28 06:03:59;;;;;;;14.10;9.70;;;;;;;10.91;61.51;100088.97;4157623;28;20259;-61
2022/04/28 06:06:01;;;;;;;11.90;9.73;;;;;;;11.04;61.54;100082.41;4158529;28;20229;-61
2022/04/28 06:08:03;;;;;;;10.80;9.43;;;;;;;10.83;61.74;100088.06;4163332;28;20224;-60
2022/04/28 06:10:05;;;;;;;12.27;9.90;;;;;;;10.92;62.27;100097.78;4158781;28;20287;-60
2022/04/28 06:12:07;;;;;;;11.87;10.33;;;;;;;10.30;63.70;100172.91;4154556;28;20240;-61
2022/04/28 06:14:09;;;;;;;11.47;10.27;;;;;;;10.84;62.36;100103.88;4136900;28;20233;-61
2022/04/28 06:16:11;;;;;;;10.67;9.53;;;;;;;10.70;62.99;100136.28;4144686;28;20780;-61
2022/04/28 06:18:13;;;;;;;10.97;9.70;;;;;;;11.02;62.06;100092.38;4143266;28;20397;-61
2022/04/28 06:20:15;;;;;;;11.80;10.30;;;;;;;11.41;61.65;100076.03;4147042;28;20245;-61
2022/04/28 06:22:18;;;;;;;11.73;10.27;;;;;;;11.57;61.35;100056.69;4154541;28;20245;-61
2022/04/28 06:24:20;;;;;;;11.30;10.10;;;;;;;11.25;61.83;100076.78;4154953;28;20236;-60
2022/04/28 06:26:22;;;;;;;10.57;9.47;;;;;;;11.57;61.07;100067.34;4153342;28;20232;-61
2022/04/28 06:28:23;;;;;;;11.57;9.80;;;;;;;11.44;61.77;100073.06;4150826;28;20254;-59
2022/04/28 06:30:25;;;;;;;10.80;9.70;;;;;;;11.51;61.52;100061.66;4156672;28;20659;-61
2022/04/28 06:32:27;;;;;;;11.00;9.90;;;;;;;11.96;61.15;100034.91;4157850;28;20258;-59
2022/04/28 06:34:29;;;;;;;11.77;10.57;;;;;;;11.46;62.25;100068.41;4155065;28;20236;-60
2022/04/28 06:36:30;;;;;;;12.30;9.17;;;;;;;11.91;60.98;100038.06;4156755;28;20290;-61
2022/04/28 06:38:32;;;;;;;10.70;9.60;;;;;;;11.65;62.38;100052.22;4148863;28;20817;-61
2022/04/28 06:40:34;;;;;;;10.67;9.57;;;;;;;11.61;61.77;100058.88;4149258;28;20229;-61
2022/04/28 06:42:36;;;;;;;10.60;9.40;;;;;;;12.52;59.99;99993.34;4153026;28;20240;-61
2022/04/28 06:44:38;;;;;;;10.17;9.03;;;;;;;11.77;60.48;100039.47;4156725;28;20232;-61
2022/04/28 06:46:40;;;;;;;10.07;8.97;;;;;;;12.33;60.01;100020.34;4155538;28;20255;-60
2022/04/28 06:48:42;;;;;;;10.80;9.37;;;;;;;12.04;61.80;100035.75;4157493;28;20229;-59
2022/04/28 06:50:44;;;;;;;10.47;9.37;;;;;;;11.94;61.34;100029.75;4156719;28;20287;-61
2022/04/28 06:52:46;;;;;;;9.83;8.83;;;;;;;11.99;60.12;100030.09;4153030;28;20302;-61
2022/04/28 06:54:48;;;;;;;12.67;8.80;;;;;;;12.56;60.37;99991.22;4156460;28;20295;-62
2022/04/28 06:56:49;;;;;;;10.47;8.30;;;;;;;12.99;60.03;99970.53;4149135;28;20291;-61
2022/04/28 06:58:51;;;;;;;10.30;9.20;;;;;;;12.51;59.47;99989.03;4145936;28;20306;-61
2022/04/28 07:00:53;;;;;;;8.67;7.77;;;;;;;12.69;60.36;99998.72;4147792;28;21148;-61
2022/04/28 07:02:56;;;;;;;10.53;8.63;;;;;;;13.03;59.48;99972.69;4155868;28;20232;-61
2022/04/28 07:04:58;;;;;;;9.50;8.50;;;;;;;13.10;59.03;99970.19;4155173;28;20286;-60
2022/04/28 07:07:00;;;;;;;9.53;8.53;;;;;;;12.59;61.66;100002.38;4152340;28;21161;-61
2022/04/28 07:09:01;;;;;;;9.50;8.07;;;;;;;13.07;59.29;99967.03;4146695;28;20771;-62
2022/04/28 07:11:03;;;;;;;8.77;7.87;;;;;;;13.39;58.18;99950.06;4147182;28;20237;-62
2022/04/28 07:13:05;;;;;;;8.53;7.60;;;;;;;12.85;59.06;99988.03;4145598;28;20580;-62
2022/04/28 07:15:07;;;;;;;10.17;7.43;;;;;;;12.77;58.66;100009.38;4147142;28;20225;-60
2022/04/28 07:17:10;;;;;;;8.67;7.77;;;;;;;13.37;57.47;99965.44;4140715;28;20237;-61
2022/04/28 07:19:11;;;;;;;9.37;7.90;;;;;;;12.94;58.60;100004.91;4142168;28;20268;-62
2022/04/28 07:21:13;;;;;;;12.10;8.20;;;;;;;12.87;58.62;99998.56;4142329;28;20234;-62
2022/04/28 07:23:15;;;;;;;12.50;8.43;;;;;;;12.62;59.42;100036.75;4142897;28;20237;-61
2022/04/28 07:25:17;;;;;;;8.70;7.20;;;;;;;12.99;60.34;100016.75;4141794;28;20233;-62
2022/04/28 07:27:19;;;;;;;10.07;8.30;;;;;;;13.37;58.85;99971.59;4143474;28;20264;-62
2022/04/28 07:29:20;;;;;;;8.80;7.83;;;;;;;13.46;57.96;99958.22;4142366;28;20253;-62
2022/04/28 07:31:22;;;;;;;9.43;7.57;;;;;;;13.06;57.67;99987.53;4140537;28;20670;-62
2022/04/28 07:33:24;;;;;;;9.03;7.33;;;;;;;13.50;58.22;99987.09;4147722;28;20837;-62
2022/04/28 07:35:26;;;;;;;10.47;7.57;;;;;;;13.77;59.09;99958.28;4144020;28;20237;-62
2022/04/28 07:37:27;;;;;;;7.93;6.73;;;;;;;13.51;57.56;99967.38;4142416;28;20232;-62
2022/04/28 07:39:29;;;;;;;10.60;7.20;;;;;;;14.04;54.67;99937.41;4139357;28;20236;-62
2022/04/28 07:41:31;;;;;;;8.63;7.73;;;;;;;13.69;57.38;99960.97;4142239;28;20229;-62
2022/04/28 07:43:32;;;;;;;12.67;7.57;;;;;;;13.89;58.75;99962.22;4147544;28;20232;-61
2022/04/28 07:45:34;;;;;;;8.00;7.20;;;;;;;14.10;57.02;99947.41;4143356;28;20887;-61
2022/04/28 07:47:36;;;;;;;10.33;7.60;;;;;;;14.07;56.76;99943.25;4142745;28;21090;-62
2022/04/28 07:49:38;;;;;;;8.30;7.37;;;;;;;14.28;56.26;99923.06;4142363;28;20229;-62
2022/04/28 07:51:41;;;;;;;11.80;7.30;;;;;;;14.32;57.28;99933.19;4142246;28;20224;-62
2022/04/28 07:53:42;;;;;;;11.70;7.70;;;;;;;14.03;57.90;99936.59;4138768;28;20250;-63
2022/04/28 07:56:10;;;;;;;10.53;7.77;;;;;;;13.74;58.85;100001.38;4141918;28;20255;-61
2022/04/28 07:58:06;;;;;;;8.70;7.20;;;;;;;14.95;56.75;99886.66;4140055;28;20348;-63
2022/04/28 08:00:09;;;;;;;9.23;7.17;;;;;;;14.63;55.72;99899.31;4143304;28;20968;-63
2022/04/28 08:02:13;;;;;;;8.83;6.90;;;;;;;14.48;57.74;99905.50;4141105;28;20974;-62
2022/04/28 08:04:15;;;;;;;8.50;7.23;;;;;;;14.48;56.88;99939.44;4138836;28;20701;-62
2022/04/28 08:06:17;;;;;;;9.43;6.90;;;;;;;15.05;56.20;99896.09;4141382;28;20233;-62
2022/04/28 08:08:20;;;;;;;7.83;6.73;;;;;;;15.13;56.17;99872.91;4142047;28;20292;-61
2022/04/28 08:10:21;;;;;;;7.17;6.47;;;;;;;14.92;55.58;99913.78;4145525;28;20232;-62
2022/04/28 08:12:23;;;;;;;7.07;6.37;;;;;;;14.78;57.42;99918.97;4142621;28;20237;-62
2022/04/28 08:14:45;;;;;;;7.67;6.57;;;;;;;14.62;56.13;99935.97;4141825;28;20873;-63
2022/04/28 08:16:50;;;;;;;8.13;6.47;;;;;;;14.33;55.52;99947.41;4148312;28;20663;-60
2022/04/28 08:18:52;;;;;;;8.10;6.40;;;;;;;14.77;55.11;99903.09;4145663;28;20268;-60
2022/04/28 08:20:54;;;;;;;7.60;6.70;;;;;;;13.41;57.03;100049.56;4142039;28;20241;-62
2022/04/28 08:22:56;;;;;;;10.07;6.57;;;;;;;14.11;57.82;100024.78;4142679;28;20233;-61
2022/04/28 08:24:58;;;;;;;6.77;6.07;;;;;;;14.35;56.72;99977.50;4150794;28;20712;-61
2022/04/28 08:26:59;;;;;;;9.67;6.60;;;;;;;14.51;56.12;99969.34;4152779;28;20286;-61
2022/04/28 08:29:01;;;;;;;8.70;6.50;;;;;;;13.79;56.79;100036.44;4142402;28;20783;-61
2022/04/28 08:31:03;;;;;;;6.97;6.27;;;;;;;14.66;55.88;99955.16;4142483;28;20872;-61
2022/04/28 08:33:05;;;;;;;7.67;6.87;;;;;;;14.53;55.70;99969.16;4149039;28;20229;-61
2022/04/28 08:35:07;;;;;;;9.43;6.60;;;;;;;14.83;56.18;99946.03;4144890;28;20741;-60
2022/04/28 08:37:09;;;;;;;10.97;7.10;;;;;;;14.26;57.62;100003.47;4143945;28;20230;-61
2022/04/28 08:39:11;;;;;;;8.40;6.67;;;;;;;14.96;56.49;99934.66;4139454;28;20279;-60
2022/04/28 08:41:19;;;;;;;8.20;6.63;;;;;;;14.91;54.73;99939.72;4145131;28;20221;-61
2022/04/28 08:43:21;;;;;;;9.60;6.20;;;;;;;14.82;55.17;99962.25;4139010;28;20245;-61
2022/04/28 08:45:29;;;;;;;9.37;6.13;;;;;;;15.26;56.38;99923.97;4144506;28;20237;-61
2022/04/28 08:47:32;;;;;;;7.43;6.20;;;;;;;15.00;56.51;99929.75;4142110;28;20283;-61
2022/04/28 08:49:33;;;;;;;8.37;6.13;;;;;;;15.17;54.38;99927.75;4142647;28;20287;-62
2022/04/28 08:51:38;;;;;;;7.27;5.87;;;;;;;15.05;55.01;99952.31;4141154;28;20229;-61
2022/04/28 08:53:40;;;;;;;7.83;6.30;;;;;;;15.22;55.50;99952.97;4147262;28;20225;-61
2022/04/28 08:55:42;;;;;;;6.60;5.90;;;;;;;15.36;54.06;99927.19;4142493;28;20350;-61
2022/04/28 08:57:44;;;;;;;7.33;6.00;;;;;;;15.83;54.01;99898.31;4141888;28;20593;-61
2022/04/28 08:59:46;;;;;;;7.23;6.20;;;;;;;15.85;53.79;99903.47;4142000;28;20233;-61
2022/04/28 09:01:50;;;;;;;7.17;6.13;;;;;;;16.51;52.70;99847.75;4142110;28;20233;-61
2022/04/28 09:03:52;;;;;;;6.53;5.53;;;;;;;15.69;53.34;99905.34;4138408;28;20239;-61
2022/04/28 09:06:28;;;;;;;5.60;4.63;;;;;;;15.81;51.26;99906.53;4142158;28;20683;-62
2022/04/28 09:08:35;;;;;;;5.77;5.07;;;;;;;16.18;51.66;99890.38;4140525;28;20805;-62
2022/04/28 09:10:37;;;;;;;9.13;5.20;;;;;;;16.22;50.45;99880.94;4142432;28;20233;-62
2022/04/28 09:12:55;;;;;;;5.70;4.60;;;;;;;16.27;50.57;99880.38;4139146;28;20237;-61
2022/04/28 09:15:11;;;;;;;8.33;4.63;;;;;;;16.76;47.66;99860.72;4140601;28;20229;-62
2022/04/28 09:17:13;;;;;;;6.17;4.87;;;;;;;16.67;49.86;99873.47;4140971;28;20229;-62
2022/04/28 09:19:33;;;;;;;6.57;4.67;;;;;;;16.28;51.06;99920.41;4146214;28;20233;-61
2022/04/28 09:21:37;;;;;;;5.77;4.53;;;;;;;16.35;50.31;99882.88;4137377;28;20233;-61
2022/04/28 09:23:38;;;;;;;9.83;4.87;;;;;;;16.78;49.01;99871.28;4143171;28;20224;-61
2022/04/28 09:25:42;;;;;;;6.00;4.40;;;;;;;16.94;49.31;99868.28;4141717;28;20233;-62
2022/04/28 09:27:47;;;;;;;5.97;4.37;;;;;;;17.66;49.10;99810.47;4141535;28;20291;-62
2022/04/28 09:29:51;;;;;;;8.23;4.37;;;;;;;17.32;48.30;99832.09;4141920;28;20259;-62
2022/04/28 09:31:54;;;;;;;6.63;4.00;;;;;;;16.44;46.22;99939.94;4146180;28;20244;-62
2022/04/28 09:34:18;;;;;;;3.53;3.23;;;;;;;16.43;47.00;99936.41;4149204;28;20343;-62
2022/04/28 09:36:19;;;;;;;5.37;4.47;;;;;;;16.05;47.06;99974.25;4142160;28;20302;-61
2022/04/28 09:38:21;;;;;;;4.90;4.17;;;;;;;16.55;47.00;99926.03;4141920;28;20868;-62
2022/04/28 09:43:07;;;;;;;4.77;3.40;;;;;;;16.67;46.13;99954.03;4138785;28;20264;-62
2022/04/28 09:45:12;;;;;;;5.93;3.20;;;;;;;16.39;43.62;99928.97;4141727;28;20319;-61
2022/04/28 09:47:13;;;;;;;4.00;3.20;;;;;;;16.54;45.42;99960.09;4141511;28;20234;-61
2022/04/28 09:49:18;;;;;;;4.63;3.60;;;;;;;16.99;44.91;99914.16;4144601;28;20233;-61
2022/04/28 09:51:24;;;;;;;3.30;3.00;;;;;;;17.31;44.97;99913.75;4144783;28;20292;-62